createdAt,value
2022-08-22T00:00:51.042Z,10.07
2022-08-22T00:02:54.491Z,10.87
2022-08-22T00:03:00.667Z,13.10
2022-08-22T00:03:40.410Z,6.33
2022-08-22T00:06:42.561Z,11.70
2022-08-22T00:09:52.803Z,9.30
2022-08-22T00:12:34.747Z,10.77
2022-08-22T00:15:42.202Z,9.73
2022-08-22T00:18:34.529Z,8.50
2022-08-22T00:21:36.011Z,10.90
2022-08-22T00:24:10.871Z,9.53
2022-08-22T00:26:45.590Z,10.93
2022-08-22T00:29:21.882Z,9.63
2022-08-22T00:32:10.357Z,10.90
2022-08-22T00:34:59.422Z,8.93
2022-08-22T00:37:52.130Z,10.13
2022-08-22T00:40:47.078Z,11.13
2022-08-22T00:43:32.631Z,11.57
2022-08-22T00:46:24.707Z,13.67
2022-08-22T00:49:04.344Z,12.47
2022-08-22T00:51:40.830Z,9.77
2022-08-22T00:54:33.117Z,13.47
2022-08-22T00:57:16.612Z,9.90
2022-08-22T00:59:44.265Z,11.60
2022-08-22T01:02:30.854Z,10.50
2022-08-22T01:05:23.942Z,11.40
2022-08-22T01:08:27.442Z,10.93
2022-08-22T01:11:18.245Z,10.87
2022-08-22T01:14:09.677Z,8.00
2022-08-22T01:17:05.721Z,13.37
2022-08-22T01:19:38.352Z,6.83
2022-08-22T01:22:44.228Z,9.17
2022-08-22T01:25:52.331Z,9.47
2022-08-22T01:28:30.975Z,9.93
2022-08-22T01:31:29.414Z,9.50
2022-08-22T01:34:26.888Z,9.10
2022-08-22T01:37:18.343Z,9.67
2022-08-22T01:39:54.338Z,7.83
2022-08-22T01:42:52.809Z,13.83
2022-08-22T01:45:42.961Z,10.07
2022-08-22T01:51:28.321Z,11.50
2022-08-22T01:54:25.996Z,8.20
2022-08-22T01:57:05.555Z,9.87
2022-08-22T01:59:42.629Z,9.97
2022-08-22T02:02:34.829Z,9.90
2022-08-22T02:05:29.719Z,7.77
2022-08-22T02:08:22.609Z,9.67
2022-08-22T02:11:12.274Z,11.40
2022-08-22T02:14:00.384Z,9.93
2022-08-22T02:19:05.805Z,9.98
2022-08-22T02:21:55.413Z,9.47
2022-08-22T02:24:42.193Z,10.93
2022-08-22T02:27:31.869Z,9.87
2022-08-22T02:30:11.503Z,11.27
2022-08-22T02:32:41.632Z,11.70
2022-08-22T02:35:33.500Z,10.23
2022-08-22T02:38:09.750Z,8.53
2022-08-22T02:40:42.772Z,10.03
2022-08-22T02:43:09.722Z,19.93
2022-08-22T02:46:05.876Z,15.20
2022-08-22T02:48:38.968Z,14.37
2022-08-22T02:51:30.005Z,11.07
2022-08-22T02:54:08.661Z,14.13
2022-08-22T02:56:53.800Z,13.87
2022-08-22T02:59:36.021Z,10.87
2022-08-22T03:02:32.449Z,12.50
2022-08-22T03:05:28.029Z,7.73
2022-08-22T03:08:07.150Z,10.37
2022-08-22T03:10:40.344Z,9.70
2022-08-22T03:13:17.235Z,11.60
2022-08-22T03:15:48.531Z,11.50
2022-08-22T03:21:12.363Z,12.33
2022-08-22T03:26:09.570Z,15.07
2022-08-22T03:28:59.220Z,13.63
2022-08-22T03:31:28.459Z,11.97
2022-08-22T03:34:14.199Z,16.37
2022-08-22T03:37:07.949Z,14.70
2022-08-22T03:40:06.263Z,15.37
2022-08-22T03:43:00.925Z,14.63
2022-08-22T03:45:48.870Z,15.73
2022-08-22T03:48:57.319Z,16.03
2022-08-22T04:43:24.013Z,13.37
2022-08-22T04:46:08.336Z,14.23
2022-08-22T04:49:07.829Z,13.10
2022-08-22T04:51:44.208Z,15.07
2022-08-22T04:54:44.890Z,15.77
2022-08-22T04:57:28.443Z,13.60
2022-08-22T05:00:07.537Z,13.17
2022-08-22T05:02:40.810Z,17.63
2022-08-22T05:05:17.110Z,18.10
2022-08-22T05:07:57.440Z,13.13
2022-08-22T05:29:58.115Z,14.23
2022-08-22T18:15:45.306Z,3.33
2022-08-22T18:38:27.005Z,7.18
2022-08-22T18:48:06.339Z,4.70
2022-08-22T19:17:17.743Z,7.20
2022-08-22T19:27:11.136Z,5.47
2022-08-22T19:29:38.191Z,4.65
2022-08-22T19:32:12.937Z,5.47
2022-08-22T19:34:47.117Z,7.95
2022-08-22T19:40:10.220Z,4.78
2022-08-22T19:42:41.157Z,6.38
2022-08-22T19:45:26.302Z,6.05
2022-08-22T19:47:58.801Z,6.53
2022-08-22T19:50:36.994Z,5.93
2022-08-22T19:53:27.775Z,6.97
2022-08-22T19:56:20.004Z,9.07
2022-08-22T19:59:17.231Z,9.25
2022-08-22T20:02:16.907Z,6.75
2022-08-22T20:05:26.384Z,4.53
2022-08-22T21:12:43.043Z,5.37
2022-08-22T21:15:10.981Z,4.93
2022-08-22T21:21:25.537Z,9.83
2022-08-22T21:24:00.845Z,6.32
2022-08-22T21:34:41.757Z,5.87
2022-08-22T21:37:48.285Z,6.30
2022-08-22T21:40:21.300Z,5.47
2022-08-22T21:43:14.600Z,8.10
2022-08-22T21:45:45.385Z,7.40
2022-08-22T21:48:42.075Z,5.23
2022-08-22T21:51:31.136Z,6.27
2022-08-22T21:54:26.868Z,6.60
2022-08-22T21:59:51.773Z,6.03
2022-08-22T22:02:34.210Z,7.10
2022-08-22T22:05:16.222Z,5.50
2022-08-22T22:07:47.486Z,8.70
2022-08-22T22:10:17.311Z,7.77
2022-08-22T22:12:47.257Z,7.93
2022-08-22T22:15:40.831Z,6.97
2022-08-22T22:18:08.677Z,6.63
2022-08-22T22:20:36.791Z,6.57
2022-08-22T22:23:05.158Z,7.73
2022-08-22T22:25:40.415Z,10.10
2022-08-22T22:28:14.142Z,7.23
2022-08-22T22:30:42.879Z,9.90
2022-08-22T22:33:10.444Z,9.50
2022-08-22T22:35:40.477Z,7.83
2022-08-22T22:40:50.289Z,8.00
2022-08-22T22:43:18.220Z,8.30
2022-08-22T22:45:46.237Z,7.13
2022-08-22T22:48:23.817Z,7.27
2022-08-22T22:50:58.965Z,7.53
2022-08-22T22:53:33.880Z,6.27
2022-08-22T22:56:31.934Z,9.00
2022-08-22T22:59:12.945Z,6.73
2022-08-22T23:05:19.167Z,8.17
2022-08-22T23:07:47.462Z,10.20
2022-08-22T23:12:56.380Z,8.43
2022-08-22T23:15:25.153Z,8.53
2022-08-22T23:17:52.456Z,9.57
2022-08-22T23:20:28.152Z,11.13
2022-08-22T23:28:18.192Z,9.20
2022-08-22T23:30:45.402Z,13.07
2022-08-22T23:36:05.384Z,7.97
2022-08-22T23:38:53.548Z,10.87
2022-08-22T23:44:08.353Z,6.70
2022-08-22T23:46:56.408Z,7.83
2022-08-22T23:49:24.102Z,7.47
2022-08-22T23:51:53.167Z,6.83
2022-08-22T23:54:21.032Z,8.93
2022-08-22T23:56:54.910Z,6.77
2022-08-22T23:59:30.706Z,6.83
